Time;durP1;ratioP1;P1;durP2;ratioP2;P2;SDS_P1;SDS_P2;PMS_P1;PMS_P2;Temp;Humidity;BMP_temperature;BMP_pressure;BME280_temperature;BME280_humidity;BME280_pressure;Samples;Min_cycle;Max_cycle;Signal;HPM_P1;HPM_P2
2023/09/03 00:08:50;;;;;;;11.80;10.70;;;;;;;13.67;88.95;100043.11;431915;1265;140720;-67
2023/09/03 00:18:56;;;;;;;11.70;10.10;;;;;;;13.52;89.66;100041.13;432040;1266;140079;-67
2023/09/03 00:29:02;;;;;;;12.70;9.40;;;;;;;13.39;89.81;100039.38;431961;1267;139753;-68
2023/09/03 00:39:08;;;;;;;12.90;10.50;;;;;;;13.27;90.22;100038.77;431958;1268;139510;-68
2023/09/03 00:49:15;;;;;;;12.90;8.90;;;;;;;13.10;90.13;100034.66;432338;1265;139834;-68
2023/09/03 00:59:23;;;;;;;17.30;10.60;;;;;;;12.89;90.74;100042.34;432134;1267;140473;-66
2023/09/03 01:09:29;;;;;;;10.40;8.00;;;;;;;12.79;91.71;100045.15;432229;1267;140305;-66
2023/09/03 01:19:54;;;;;;;14.00;9.80;;;;;;;12.73;92.30;100040.95;432022;1265;139578;-67
2023/09/03 01:30:01;;;;;;;10.00;8.50;;;;;;;12.70;92.29;100043.42;432031;1267;139697;-66
2023/09/03 01:40:10;;;;;;;13.50;11.00;;;;;;;12.67;92.63;100045.70;432006;1267;140473;-67
2023/09/03 01:50:25;;;;;;;12.90;10.40;;;;;;;12.67;93.10;100037.31;432005;1268;140770;-67
2023/09/03 02:00:31;;;;;;;9.60;8.60;;;;;;;12.77;94.15;100034.68;432323;1267;139918;-67
2023/09/03 02:10:37;;;;;;;9.90;8.90;;;;;;;12.91;94.95;100026.07;432346;1265;139453;-67
2023/09/03 02:20:42;;;;;;;8.60;7.80;;;;;;;12.98;95.31;100018.91;431865;1270;140098;-67
2023/09/03 02:30:49;;;;;;;9.90;7.90;;;;;;;13.06;95.68;100007.35;432008;1267;139592;-67
2023/09/03 02:40:55;;;;;;;9.10;8.00;;;;;;;13.05;95.69;100000.72;431995;1267;139323;-66
2023/09/03 02:51:02;;;;;;;9.90;8.80;;;;;;;13.02;96.07;99995.27;431996;1267;139726;-67
2023/09/03 03:01:08;;;;;;;9.20;8.20;;;;;;;13.03;96.39;99990.98;432307;1267;139249;-67
2023/09/03 03:11:16;;;;;;;11.30;8.60;;;;;;;13.09;96.79;99994.98;432074;1269;140600;-67
2023/09/03 03:21:22;;;;;;;10.50;9.50;;;;;;;13.14;97.16;99997.46;431833;1265;139779;-66
2023/09/03 03:31:28;;;;;;;11.60;8.60;;;;;;;13.20;97.66;100003.90;432366;1269;139931;-66
2023/09/03 03:41:34;;;;;;;10.10;9.00;;;;;;;13.20;97.84;100013.02;432986;1268;139656;-68
2023/09/03 03:51:39;;;;;;;11.70;10.60;;;;;;;13.22;98.23;100014.88;432751;1265;140746;-68
2023/09/03 04:01:46;;;;;;;13.80;12.30;;;;;;;13.26;98.29;100017.56;432202;1267;139958;-67
2023/09/03 04:11:52;;;;;;;12.50;11.20;;;;;;;13.28;98.31;100021.15;432174;1265;139662;-68
2023/09/03 04:22:00;;;;;;;12.60;11.10;;;;;;;13.29;98.25;100017.18;432018;1269;140594;-66
2023/09/03 04:32:07;;;;;;;12.50;11.20;;;;;;;13.31;98.18;100036.39;432109;1267;140123;-67
2023/09/03 04:42:12;;;;;;;13.00;11.70;;;;;;;13.41;98.60;100041.19;432164;1270;139722;-67
2023/09/03 04:52:18;;;;;;;10.40;9.30;;;;;;;13.61;98.72;100042.61;432249;1265;142501;-67
2023/09/03 05:02:24;;;;;;;12.50;11.00;;;;;;;13.96;98.81;100032.77;432316;1265;140549;-70
2023/09/03 05:12:29;;;;;;;11.70;10.20;;;;;;;14.60;98.89;100035.77;432773;1265;139668;-67
2023/09/03 05:22:35;;;;;;;14.30;11.00;;;;;;;16.20;99.20;100040.18;432251;1267;140619;-68
2023/09/03 05:32:41;;;;;;;9.70;8.80;;;;;;;20.78;99.46;100044.67;432348;1265;140425;-68
2023/09/03 05:42:48;;;;;;;9.50;8.60;;;;;;;23.38;86.58;100057.34;432453;1267;139756;-68
2023/09/03 05:52:54;;;;;;;6.60;6.00;;;;;;;24.58;80.75;100055.53;432527;1265;139546;-69
2023/09/03 06:03:00;;;;;;;8.80;8.00;;;;;;;25.62;75.68;100060.98;432214;1267;140796;-69
2023/09/03 06:13:06;;;;;;;7.90;6.90;;;;;;;26.49;70.55;100065.30;432401;1265;139004;-69
2023/09/03 06:23:15;;;;;;;5.90;5.30;;;;;;;28.53;67.84;100070.59;432612;1265;139121;-68
2023/09/03 06:33:21;;;;;;;6.30;4.80;;;;;;;30.91;60.69;100071.95;432404;1268;139460;-70
2023/09/03 06:43:27;;;;;;;5.70;5.00;;;;;;;30.07;55.13;100080.50;432669;1267;138840;-68
2023/09/03 06:53:32;;;;;;;5.10;4.40;;;;;;;28.11;54.56;100094.17;432626;1270;139468;-68
2023/09/03 07:03:38;;;;;;;5.10;4.30;;;;;;;27.15;55.19;100101.09;432197;1268;138725;-69
2023/09/03 07:13:44;;;;;;;3.80;3.60;;;;;;;29.32;55.80;100109.40;432304;1268;139606;-67
2023/09/03 07:23:50;;;;;;;3.30;3.00;;;;;;;30.41;50.75;100126.92;432523;1268;139019;-69
2023/09/03 07:33:58;;;;;;;4.00;2.80;;;;;;;28.61;45.42;100143.52;432668;1268;140224;-67
2023/09/03 07:44:04;;;;;;;4.00;2.80;;;;;;;26.92;46.22;100147.63;432283;1266;140506;-67
2023/09/03 07:54:10;;;;;;;3.90;3.20;;;;;;;26.90;48.02;100146.04;432388;1267;141319;-67
2023/09/03 08:04:15;;;;;;;2.80;2.50;;;;;;;28.44;47.27;100146.90;432385;1268;139879;-68
2023/09/03 08:14:22;;;;;;;2.50;2.30;;;;;;;32.82;45.72;100143.11;432322;1269;139086;-70
2023/09/03 08:24:29;;;;;;;2.40;2.20;;;;;;;38.77;40.17;100136.04;432631;1268;138847;-69
2023/09/03 08:34:35;;;;;;;2.50;2.30;;;;;;;42.31;34.68;100137.10;432146;1268;138963;-68
2023/09/03 08:44:52;;;;;;;3.40;2.10;;;;;;;39.72;30.59;100127.09;432061;1268;139783;-68
2023/09/03 08:55:01;;;;;;;2.40;2.10;;;;;;;35.02;31.43;100128.46;432597;1268;139068;-68
2023/09/03 09:05:09;;;;;;;1.20;1.10;;;;;;;32.09;33.39;100132.49;432385;1270;140417;-68
2023/09/03 09:15:15;;;;;;;1.40;1.20;;;;;;;30.49;34.32;100134.29;432364;1267;139190;-72
2023/09/03 09:25:22;;;;;;;5.60;1.40;;;;;;;29.76;35.30;100146.20;432828;1269;139134;-68
2023/09/03 09:35:28;;;;;;;1.20;0.90;;;;;;;28.92;35.96;100146.33;432631;1265;139018;-69
2023/09/03 09:45:34;;;;;;;1.50;1.00;;;;;;;28.56;36.38;100144.80;432377;1265;139865;-67
2023/09/03 09:55:40;;;;;;;3.20;1.30;;;;;;;27.83;36.70;100136.52;432723;1267;138492;-67
2023/09/03 10:05:51;;;;;;;1.80;1.00;;;;;;;27.32;37.03;100131.25;432346;1265;139270;-68
2023/09/03 10:16:02;;;;;;;1.10;1.00;;;;;;;26.98;37.05;100135.85;432549;1267;140399;-67
2023/09/03 10:26:11;;;;;;;2.10;1.00;;;;;;;26.06;37.66;100132.93;432714;1268;138906;-69
2023/09/03 10:36:19;;;;;;;1.40;1.10;;;;;;;25.60;38.64;100134.24;432625;1267;138984;-66
2023/09/03 10:46:26;;;;;;;1.10;1.10;;;;;;;25.47;38.96;100130.98;433026;1269;138993;-67
2023/09/03 10:56:32;;;;;;;1.10;1.00;;;;;;;25.61;38.60;100127.29;432639;1270;139355;-67
2023/09/03 11:06:39;;;;;;;1.50;1.30;;;;;;;25.41;38.56;100136.02;432634;1268;140812;-67
2023/09/03 11:16:45;;;;;;;1.90;1.30;;;;;;;25.02;38.95;100146.86;433096;1270;138697;-67
2023/09/03 11:27:06;;;;;;;2.10;1.90;;;;;;;24.63;39.58;100151.33;432712;1269;139691;-67
2023/09/03 11:37:12;;;;;;;1.50;1.10;;;;;;;24.31;39.87;100148.04;433146;1269;138672;-67
2023/09/03 11:47:17;;;;;;;2.50;1.20;;;;;;;24.23;39.84;100143.21;432611;1270;139102;-67
2023/09/03 11:57:23;;;;;;;1.70;1.00;;;;;;;24.48;40.45;100137.79;432387;1269;171408;-68
2023/09/03 12:07:29;;;;;;;1.70;1.10;;;;;;;24.61;40.95;100140.73;432478;1265;140336;-68
2023/09/03 12:17:35;;;;;;;3.00;1.50;;;;;;;24.49;40.89;100137.08;433005;1268;139239;-66
2023/09/03 12:27:50;;;;;;;2.90;0.90;;;;;;;24.11;40.83;100119.94;433116;1268;139953;-67
2023/09/03 12:38:01;;;;;;;0.90;0.90;;;;;;;24.05;41.08;100111.98;433342;1266;140256;-66
2023/09/03 12:48:08;;;;;;;3.40;1.10;;;;;;;24.45;40.64;100101.36;433508;1268;139262;-67
2023/09/03 12:58:13;;;;;;;1.60;1.50;;;;;;;24.24;40.58;100103.86;433132;1269;139762;-67
2023/09/03 13:08:19;;;;;;;1.80;1.10;;;;;;;23.56;40.67;100097.19;433024;1269;140132;-67
2023/09/03 13:18:25;;;;;;;1.70;1.30;;;;;;;23.34;41.29;100090.87;432882;1267;138997;-69
2023/09/03 13:28:31;;;;;;;1.40;1.00;;;;;;;23.42;41.41;100094.53;432286;1269;138825;-66
2023/09/03 13:38:37;;;;;;;3.70;1.30;;;;;;;23.45;40.90;100097.34;432407;1269;139156;-68
2023/09/03 13:48:43;;;;;;;3.00;1.50;;;;;;;23.63;40.92;100105.23;432715;1267;138673;-67
2023/09/03 13:58:49;;;;;;;2.20;0.80;;;;;;;23.61;40.79;100109.34;432358;1269;138899;-68
2023/09/03 14:08:56;;;;;;;3.40;1.20;;;;;;;23.67;40.47;100120.02;432401;1270;139433;-67
2023/09/03 14:19:02;;;;;;;2.50;1.30;;;;;;;23.63;39.93;100122.86;432258;1270;138620;-65
2023/09/03 14:29:09;;;;;;;1.60;1.00;;;;;;;23.50;39.66;100120.62;432153;1269;138694;-66
2023/09/03 14:39:16;;;;;;;2.30;1.50;;;;;;;23.21;39.47;100124.38;432378;1267;139851;-66
2023/09/03 14:49:37;;;;;;;2.80;1.30;;;;;;;23.00;40.28;100131.73;432136;1270;138894;-66
2023/09/03 14:59:46;;;;;;;1.10;0.90;;;;;;;22.67;40.89;100139.26;432164;1269;140371;-68
2023/09/03 15:09:54;;;;;;;2.20;1.50;;;;;;;22.54;41.73;100143.11;432069;1269;139085;-66
2023/09/03 15:20:00;;;;;;;1.70;1.20;;;;;;;22.37;42.09;100140.48;432350;1269;140271;-68
2023/09/03 15:30:08;;;;;;;2.60;1.60;;;;;;;22.14;42.00;100149.23;432207;1267;138691;-68
2023/09/03 15:40:13;;;;;;;;;;;;;;;21.95;42.60;100157.83;432413;1269;139191;-67
2023/09/03 15:50:19;;;;;;;3.60;1.50;;;;;;;21.73;42.91;100154.16;432537;1267;126112;-66
2023/09/03 16:00:25;;;;;;;2.00;1.80;;;;;;;21.58;43.44;100160.84;432677;1265;139731;-68
2023/09/03 16:10:31;;;;;;;1.60;1.10;;;;;;;21.44;43.98;100157.71;432502;1264;139050;-66
2023/09/03 16:20:37;;;;;;;1.90;1.10;;;;;;;21.27;44.40;100162.99;433057;1265;139041;-67
2023/09/03 16:30:43;;;;;;;1.70;1.10;;;;;;;21.05;44.72;100162.48;432950;1269;138774;-66
2023/09/03 16:40:54;;;;;;;2.20;1.70;;;;;;;20.79;44.99;100170.20;432596;1267;138647;-68
2023/09/03 16:51:00;;;;;;;1.30;1.00;;;;;;;20.44;45.94;100175.12;432363;1269;139799;-66
2023/09/03 17:01:05;;;;;;;1.40;1.10;;;;;;;20.09;46.72;100186.27;432223;1267;141215;-67
2023/09/03 17:11:11;;;;;;;4.30;2.20;;;;;;;19.75;47.14;100202.02;431928;1270;138570;-67
2023/09/03 17:21:17;;;;;;;3.40;1.30;;;;;;;19.46;47.66;100217.79;432051;1269;138635;-67
2023/09/03 17:31:23;;;;;;;5.70;3.00;;;;;;;19.18;48.44;100233.15;432102;1267;138745;-67
2023/09/03 17:41:29;;;;;;;1.80;1.10;;;;;;;18.89;49.31;100248.23;432070;1270;138509;-67
2023/09/03 17:51:35;;;;;;;3.50;1.50;;;;;;;18.60;50.35;100259.25;432254;1264;139901;-67
2023/09/03 18:01:41;;;;;;;8.20;1.90;;;;;;;18.32;51.39;100269.71;432681;1265;138750;-67
2023/09/03 18:11:47;;;;;;;3.10;1.40;;;;;;;18.06;52.60;100273.55;432148;1267;138822;-66
2023/09/03 18:21:53;;;;;;;3.00;1.30;;;;;;;17.90;53.69;100281.89;431544;1265;140120;-67
2023/09/03 18:31:58;;;;;;;4.80;2.30;;;;;;;17.75;54.62;100296.91;432189;1267;138882;-67
2023/09/03 18:42:05;;;;;;;7.50;2.20;;;;;;;17.62;55.63;100306.58;432572;1265;138875;-67
2023/09/03 18:52:10;;;;;;;3.60;1.50;;;;;;;17.56;56.57;100316.89;432637;1268;138731;-68
2023/09/03 19:02:17;;;;;;;11.20;5.30;;;;;;;17.43;57.49;100311.20;432819;1267;139365;-67
2023/09/03 19:12:23;;;;;;;7.50;2.20;;;;;;;17.20;58.76;100309.98;433250;1264;138967;-67
2023/09/03 19:22:29;;;;;;;3.00;2.00;;;;;;;16.92;60.00;100322.30;432829;1267;139700;-67
2023/09/03 19:32:35;;;;;;;2.30;1.70;;;;;;;16.65;61.36;100336.05;432716;1267;139632;-68
2023/09/03 19:42:41;;;;;;;2.00;1.60;;;;;;;16.43;62.36;100342.65;432674;1267;139504;-67
2023/09/03 19:52:59;;;;;;;3.90;2.40;;;;;;;16.30;62.58;100338.34;432661;1265;140475;-67
2023/09/03 20:03:06;;;;;;;3.50;3.20;;;;;;;16.30;62.76;100330.94;432675;1268;141610;-69
2023/09/03 20:13:12;;;;;;;8.20;3.10;;;;;;;16.31;63.25;100335.24;432940;1267;139444;-66
2023/09/03 20:23:18;;;;;;;6.10;2.70;;;;;;;16.29;63.87;100343.00;432773;1265;139544;-68
2023/09/03 20:33:25;;;;;;;3.20;2.10;;;;;;;16.22;64.23;100337.20;432614;1267;139481;-67
2023/09/03 20:43:32;;;;;;;3.50;2.00;;;;;;;16.09;64.80;100337.48;432824;1268;139572;-67
2023/09/03 20:53:38;;;;;;;3.30;2.40;;;;;;;15.93;65.72;100348.34;432665;1268;140128;-67
2023/09/03 21:03:44;;;;;;;2.80;2.60;;;;;;;15.84;66.75;100364.84;432691;1265;139692;-69
2023/09/03 21:13:50;;;;;;;2.50;1.70;;;;;;;15.83;67.50;100368.27;432891;1265;140420;-69
2023/09/03 21:23:56;;;;;;;2.20;1.60;;;;;;;15.79;68.04;100382.02;432722;1265;139803;-68
2023/09/03 21:34:02;;;;;;;2.60;2.00;;;;;;;15.74;68.68;100391.37;433166;1265;139545;-66
2023/09/03 21:44:18;;;;;;;4.60;2.20;;;;;;;15.70;69.10;100396.92;433044;1267;139981;-67
2023/09/03 21:54:24;;;;;;;4.10;1.50;;;;;;;15.64;69.56;100402.48;433089;1269;140467;-67
2023/09/03 22:04:29;;;;;;;3.00;2.60;;;;;;;15.58;69.91;100402.36;432362;1268;139722;-66
2023/09/03 22:14:35;;;;;;;2.00;1.70;;;;;;;15.52;70.19;100396.50;432492;1269;141947;-67
2023/09/03 22:24:41;;;;;;;6.90;2.00;;;;;;;15.43;70.40;100402.77;432811;1267;139869;-66
2023/09/03 22:34:47;;;;;;;4.10;2.40;;;;;;;15.34;70.60;100411.66;432467;1270;140397;-67
2023/09/03 22:44:53;;;;;;;4.10;1.90;;;;;;;15.24;70.92;100423.83;432435;1267;139241;-68
2023/09/03 22:54:59;;;;;;;2.40;1.80;;;;;;;15.09;71.21;100406.32;432642;1267;140313;-67
2023/09/03 23:05:06;;;;;;;4.70;2.90;;;;;;;14.98;71.65;100412.04;432549;1270;139483;-67
2023/09/03 23:15:12;;;;;;;3.00;2.40;;;;;;;14.92;71.99;100403.31;432895;1264;139581;-67
2023/09/03 23:25:18;;;;;;;4.70;2.10;;;;;;;14.80;72.10;100401.82;432598;1269;139474;-66
2023/09/03 23:35:24;;;;;;;4.10;1.70;;;;;;;14.59;72.50;100399.14;432165;1265;140126;-68
2023/09/03 23:45:30;;;;;;;4.00;2.50;;;;;;;14.45;73.08;100390.06;432300;1265;139907;-67
2023/09/03 23:55:36;;;;;;;2.50;1.80;;;;;;;14.39;73.59;100404.20;432485;1267;139962;-67
